Time;durP1;ratioP1;P1;durP2;ratioP2;P2;SDS_P1;SDS_P2;PMS_P1;PMS_P2;Temp;Humidity;BMP_temperature;BMP_pressure;BME280_temperature;BME280_humidity;BME280_pressure;Samples;Min_cycle;Max_cycle;Signal;HPM_P1;HPM_P2
2023/10/18 00:01:04;;;;;;;1999.90;999.90;;;;;;;13.34;60.98;101293.94;10374089;28;20046;-60
2023/10/18 00:06:18;;;;;;;1999.90;999.90;;;;;;;13.64;60.76;101283.31;10355831;28;20399;-60
2023/10/18 00:11:20;;;;;;;1999.90;999.90;;;;;;;13.42;61.29;101272.44;10358050;28;20052;-60
2023/10/18 00:16:23;;;;;;;1999.90;999.90;;;;;;;13.25;61.39;101269.03;10373677;28;20072;-60
2023/10/18 00:21:25;;;;;;;1999.90;999.90;;;;;;;13.25;62.90;101263.75;10373443;28;20046;-60
2023/10/18 00:26:28;;;;;;;1999.90;999.90;;;;;;;13.43;60.99;101264.47;10373330;28;20058;-60
2023/10/18 00:31:30;;;;;;;1999.90;999.90;;;;;;;13.65;60.99;101249.94;10355917;28;20130;-60
2023/10/18 00:36:33;;;;;;;1999.90;999.90;;;;;;;13.06;61.54;101255.28;10372382;28;20079;-60
2023/10/18 00:41:42;;;;;;;1999.90;999.90;;;;;;;13.17;60.91;101250.25;10372291;28;20046;-60
2023/10/18 00:46:46;;;;;;;1999.90;999.90;;;;;;;13.05;61.12;101248.38;10354809;28;20414;-60
2023/10/18 00:51:49;;;;;;;1999.90;999.90;;;;;;;13.41;60.52;101253.16;10355036;28;20509;-60
2023/10/18 00:56:53;;;;;;;1999.90;999.90;;;;;;;12.95;61.66;101251.53;10372339;28;20077;-60
2023/10/18 01:01:59;;;;;;;1999.90;999.90;;;;;;;12.94;61.17;101256.88;10372191;28;20050;-60
2023/10/18 01:07:11;;;;;;;1999.90;999.90;;;;;;;12.80;60.23;101257.72;10355371;28;20103;-60
2023/10/18 01:12:18;;;;;;;1999.90;999.90;;;;;;;12.95;61.86;101234.94;10372008;28;20050;-60
2023/10/18 01:17:20;;;;;;;1999.90;999.90;;;;;;;13.15;61.11;101228.47;10354463;28;20054;-60
2023/10/18 01:22:23;;;;;;;1999.90;999.90;;;;;;;12.64;61.79;101216.59;10371547;28;20046;-60
2023/10/18 01:27:26;;;;;;;1999.90;999.90;;;;;;;13.21;60.45;101217.53;10370848;28;20084;-60
2023/10/18 01:32:28;;;;;;;1999.90;999.90;;;;;;;13.19;61.60;101212.38;10371268;28;20042;-60
2023/10/18 01:37:31;;;;;;;1999.90;999.90;;;;;;;13.41;61.03;101204.97;10371086;28;20058;-62
2023/10/18 01:42:33;;;;;;;1999.90;999.90;;;;;;;13.00;61.54;101211.84;10370251;28;20046;-62
2023/10/18 01:47:38;;;;;;;1999.90;999.90;;;;;;;13.31;60.93;101196.78;10370853;28;20050;-62
2023/10/18 01:52:54;;;;;;;1999.90;999.90;;;;;;;13.04;61.01;101194.94;10355738;28;20050;-62
2023/10/18 01:57:58;;;;;;;1999.90;999.90;;;;;;;12.29;64.45;101181.91;10370437;28;20046;-62
2023/10/18 02:03:02;;;;;;;1999.90;999.90;;;;;;;12.54;62.54;101178.69;10370308;28;20050;-61
2023/10/18 02:08:05;;;;;;;1999.90;999.90;;;;;;;12.61;62.12;101181.78;10369970;28;20103;-62
2023/10/18 02:13:11;;;;;;;1999.90;999.90;;;;;;;13.40;60.74;101167.34;10370004;28;20042;-62
2023/10/18 02:18:14;;;;;;;1999.90;999.90;;;;;;;12.80;62.57;101173.63;10352986;28;20057;-62
2023/10/18 02:23:17;;;;;;;1999.90;999.90;;;;;;;13.64;60.16;101164.91;10352575;28;20126;-62
2023/10/18 02:28:23;;;;;;;1999.90;999.90;;;;;;;12.70;62.15;101173.34;10351636;28;20410;-62
2023/10/18 02:33:26;;;;;;;1999.90;999.90;;;;;;;12.68;61.50;101162.09;10369447;28;20073;-62
2023/10/18 02:38:30;;;;;;;1999.90;999.90;;;;;;;12.85;60.57;101163.69;10369171;28;20075;-62
2023/10/18 02:43:33;;;;;;;1999.90;999.90;;;;;;;12.89;60.10;101151.19;10368450;28;20050;-62
2023/10/18 02:48:36;;;;;;;1999.90;999.90;;;;;;;12.63;61.08;101145.75;10369451;28;20077;-62
2023/10/18 02:53:41;;;;;;;1999.90;999.90;;;;;;;12.60;60.41;101138.88;10350863;28;20414;-62
2023/10/18 02:58:46;;;;;;;1999.90;999.90;;;;;;;12.34;60.94;101122.09;10351210;28;20060;-62
2023/10/18 03:03:54;;;;;;;1999.90;999.90;;;;;;;12.58;60.71;101116.31;10367957;28;20054;-62
2023/10/18 03:09:00;;;;;;;1999.90;999.90;;;;;;;11.83;63.72;101108.41;10368323;28;20463;-62
2023/10/18 03:14:04;;;;;;;1999.90;999.90;;;;;;;12.94;61.76;101099.19;10357915;28;20148;-61
2023/10/18 03:19:12;;;;;;;1999.90;999.90;;;;;;;12.44;61.51;101106.63;10358435;28;20058;-62
2023/10/18 03:24:14;;;;;;;1999.90;999.90;;;;;;;12.35;63.01;101096.66;10374812;28;20506;-62
2023/10/18 03:29:16;;;;;;;1999.90;999.90;;;;;;;12.64;62.46;101087.00;10375258;28;20049;-61
2023/10/18 03:34:19;;;;;;;1999.90;999.90;;;;;;;12.42;62.71;101083.09;10375002;28;20444;-61
2023/10/18 03:39:25;;;;;;;1999.90;999.90;;;;;;;12.78;61.62;101092.28;10374841;28;20049;-62
2023/10/18 03:44:27;;;;;;;1999.90;999.90;;;;;;;12.22;62.37;101070.31;10374783;28;20057;-62
2023/10/18 03:49:33;;;;;;;1999.90;999.90;;;;;;;11.53;65.31;101070.75;10374635;28;20050;-62
2023/10/18 03:59:58;;;;;;;1999.90;999.90;;;;;;;12.97;61.37;101056.97;10373635;28;20081;-61
2023/10/18 04:05:10;;;;;;;1999.90;999.90;;;;;;;12.73;61.42;101041.78;10374098;28;20050;-62
2023/10/18 04:10:13;;;;;;;1999.90;999.90;;;;;;;12.71;61.64;101043.69;10357381;28;20081;-62
2023/10/18 04:15:29;;;;;;;1999.90;999.90;;;;;;;12.34;62.46;101038.06;10373121;28;20073;-61
2023/10/18 04:20:32;;;;;;;1999.90;999.90;;;;;;;12.43;61.71;101028.78;10355760;28;20054;-61
2023/10/18 04:25:36;;;;;;;1999.90;999.90;;;;;;;12.28;62.75;101027.94;10339412;28;20480;-62
2023/10/18 04:30:38;;;;;;;1999.90;999.90;;;;;;;12.34;62.20;101022.31;10373278;28;20042;-61
2023/10/18 04:35:52;;;;;;;1999.90;999.90;;;;;;;12.11;62.08;101017.63;10372488;28;20058;-62
2023/10/18 04:51:27;;;;;;;1999.90;999.90;;;;;;;12.01;62.55;100998.97;10372649;28;20091;-62
2023/10/18 04:56:32;;;;;;;1999.90;999.90;;;;;;;12.22;63.02;100979.28;10372384;28;20054;-62
2023/10/18 05:01:47;;;;;;;1999.90;999.90;;;;;;;12.68;61.08;100967.69;10372237;28;20079;-62
2023/10/18 05:06:55;;;;;;;1999.90;999.90;;;;;;;12.17;62.25;100964.75;10371844;28;20068;-62
2023/10/18 05:11:59;;;;;;;1999.90;999.90;;;;;;;12.52;62.10;100965.16;10372072;28;20053;-61
2023/10/18 05:17:11;;;;;;;1999.90;999.90;;;;;;;12.63;61.51;100956.63;10354450;28;20064;-62
2023/10/18 05:22:23;;;;;;;1999.90;999.90;;;;;;;13.08;60.23;100949.34;10371699;28;20046;-62
2023/10/18 05:27:27;;;;;;;1999.90;999.90;;;;;;;12.55;60.88;100938.72;10338928;28;20486;-62
2023/10/18 05:32:47;;;;;;;1999.90;999.90;;;;;;;12.41;60.49;100936.97;10370438;28;20090;-62
2023/10/18 05:37:58;;;;;;;1999.90;999.90;;;;;;;12.56;60.64;100929.91;10371221;28;20057;-61
2023/10/18 05:43:03;;;;;;;1999.90;999.90;;;;;;;12.16;62.69;100932.41;10354489;28;20053;-61
2023/10/18 05:48:22;;;;;;;1999.90;999.90;;;;;;;12.32;61.54;100920.94;10370935;28;20078;-61
2023/10/18 05:53:29;;;;;;;1999.90;999.90;;;;;;;12.53;60.48;100918.75;10355758;28;20121;-62
2023/10/18 05:58:32;;;;;;;1999.90;999.90;;;;;;;12.12;62.06;100925.69;10370570;28;20068;-61
2023/10/18 06:03:41;;;;;;;1999.90;999.90;;;;;;;11.72;62.72;100935.94;10370712;28;20042;-61
2023/10/18 06:08:43;;;;;;;1999.90;999.90;;;;;;;11.76;62.99;100929.56;10370101;28;20073;-61
2023/10/18 06:13:46;;;;;;;1999.90;999.90;;;;;;;12.42;62.51;100922.06;10369426;28;20384;-62
2023/10/18 06:18:49;;;;;;;1999.90;999.90;;;;;;;11.90;63.70;100924.34;10369259;28;20478;-61
2023/10/18 06:23:54;;;;;;;1999.90;999.90;;;;;;;12.10;62.69;100914.41;10342802;23;20111;-64
2023/10/18 06:29:08;;;;;;;1999.90;999.90;;;;;;;12.06;63.48;100905.88;10328648;28;20137;-64
2023/10/18 06:34:15;;;;;;;1999.90;999.90;;;;;;;12.39;61.34;100911.72;10328523;28;20073;-64
2023/10/18 06:39:25;;;;;;;1999.90;999.90;;;;;;;11.67;64.53;100898.66;10328845;28;20050;-64
2023/10/18 06:44:29;;;;;;;1999.90;999.90;;;;;;;12.08;63.11;100893.50;10328454;28;20054;-64
2023/10/18 06:49:32;;;;;;;1999.90;999.90;;;;;;;12.93;60.63;100884.66;10328177;28;20181;-64
2023/10/18 06:54:39;;;;;;;1999.90;999.90;;;;;;;11.62;64.06;100877.09;10328467;28;20043;-64
2023/10/18 06:59:47;;;;;;;1999.90;999.90;;;;;;;12.76;61.39;100873.47;10327222;28;20134;-64
2023/10/18 07:04:56;;;;;;;;;;;;;;;12.72;61.66;100869.34;10312866;28;20046;-64
2023/10/18 07:10:04;;;;;;;1999.90;999.90;;;;;;;13.15;60.95;100866.50;10328045;28;19926;-64
2023/10/18 07:15:09;;;;;;;1999.90;999.90;;;;;;;12.96;60.68;100860.78;10311480;28;20084;-64
2023/10/18 07:20:15;;;;;;;1999.90;999.90;;;;;;;13.01;60.36;100859.56;10327500;28;20051;-64
2023/10/18 07:25:26;;;;;;;1999.90;999.90;;;;;;;13.28;61.83;100845.50;10326524;28;20116;-64
2023/10/18 07:30:37;;;;;;;1999.90;999.90;;;;;;;12.37;62.48;100821.72;10326470;28;20088;-64
2023/10/18 07:35:45;;;;;;;1999.90;999.90;;;;;;;13.10;61.63;100825.72;10327493;28;20062;-64
2023/10/18 07:40:56;;;;;;;1999.90;999.90;;;;;;;13.52;61.01;100819.31;10325954;28;20043;-64
2023/10/18 07:46:04;;;;;;;1999.90;999.90;;;;;;;12.74;62.31;100812.31;10327295;28;20133;-64
2023/10/18 07:51:26;;;;;;;1999.90;999.90;;;;;;;12.29;63.57;100811.75;10327178;28;20061;-64
2023/10/18 07:56:31;;;;;;;1999.90;999.90;;;;;;;13.52;60.05;100781.66;10327936;28;20511;-64
2023/10/18 08:02:19;;;;;;;1999.90;999.90;;;;;;;13.80;60.75;100795.50;10332511;28;20042;-64
2023/10/18 08:06:56;;;;;;;1999.90;999.90;;;;;;;14.21;59.19;100800.44;10329194;28;20054;-64
2023/10/18 08:12:18;;;;;;;1999.90;999.90;;;;;;;13.61;59.99;100788.91;10333453;28;20295;-64
2023/10/18 08:17:30;;;;;;;;;;;;;;;14.56;58.54;100780.34;10333758;28;20058;-64
2023/10/18 08:22:36;;;;;;;1999.90;999.90;;;;;;;14.71;57.75;100773.97;10332376;28;19926;-64
2023/10/18 08:27:41;;;;;;;1999.90;999.90;;;;;;;14.46;59.21;100773.13;10331944;28;20061;-64
2023/10/18 08:32:43;;;;;;;1999.90;999.90;;;;;;;14.87;58.37;100757.81;10333296;28;20129;-65
2023/10/18 08:37:46;;;;;;;1999.90;999.90;;;;;;;14.57;59.18;100758.31;10332628;28;20061;-64
2023/10/18 08:42:51;;;;;;;1999.90;999.90;;;;;;;16.24;57.50;100740.94;10330644;28;20047;-64
2023/10/18 08:47:58;;;;;;;1999.90;999.90;;;;;;;16.37;55.71;100735.47;10331245;28;20119;-65
2023/10/18 08:53:01;;;;;;;1999.90;999.90;;;;;;;17.62;55.71;100734.50;10332170;28;20111;-65
2023/10/18 08:58:08;;;;;;;1999.90;999.90;;;;;;;17.91;54.48;100735.56;10331868;28;20133;-65
2023/10/18 09:03:13;;;;;;;1999.90;999.90;;;;;;;17.44;52.14;100723.72;10331842;28;20046;-65
2023/10/18 09:08:24;;;;;;;1999.90;999.90;;;;;;;17.40;52.87;100717.03;10329393;28;20047;-65
2023/10/18 09:18:30;;;;;;;1999.90;999.90;;;;;;;16.48;54.23;100709.00;10330259;28;20108;-65
2023/10/18 09:23:33;;;;;;;1999.90;999.90;;;;;;;17.81;52.92;100696.63;10329824;28;20100;-65
2023/10/18 09:28:36;;;;;;;1999.90;999.90;;;;;;;16.75;52.68;100697.91;10331010;28;20112;-65
2023/10/18 09:33:48;;;;;;;1999.90;999.90;;;;;;;17.54;52.88;100684.03;10313715;28;20046;-65
2023/10/18 09:38:53;;;;;;;1999.90;999.90;;;;;;;18.03;52.22;100676.19;10329194;28;20433;-65
2023/10/18 09:44:00;;;;;;;1999.90;999.90;;;;;;;18.26;51.11;100678.56;10330533;28;20052;-65
2023/10/18 09:49:09;;;;;;;1999.90;999.90;;;;;;;17.63;52.15;100666.50;10330343;28;20129;-64
2023/10/18 09:54:14;;;;;;;1999.90;999.90;;;;;;;18.34;51.13;100653.03;10329207;28;20047;-65
2023/10/18 09:59:25;;;;;;;1999.90;999.90;;;;;;;18.56;50.01;100645.72;10328306;28;20483;-65
2023/10/18 10:04:32;;;;;;;1999.90;999.90;;;;;;;18.27;50.71;100628.03;10329306;28;20134;-65
2023/10/18 10:09:38;;;;;;;1999.90;999.90;;;;;;;18.20;51.17;100632.25;10328770;28;20050;-65
2023/10/18 10:14:41;;;;;;;1999.90;999.90;;;;;;;18.55;49.75;100609.56;10328031;28;20498;-66
2023/10/18 10:19:54;;;;;;;1999.90;999.90;;;;;;;20.12;48.58;100607.63;10328883;28;20054;-65
2023/10/18 10:25:05;;;;;;;1999.90;999.90;;;;;;;20.03;47.23;100600.59;10328650;28;20051;-65
2023/10/18 10:30:35;;;;;;;1999.90;999.90;;;;;;;20.64;47.48;100592.69;10327590;28;20054;-65
2023/10/18 10:35:44;;;;;;;1999.90;999.90;;;;;;;20.23;46.50;100582.63;10327352;28;20591;-65
2023/10/18 10:41:04;;;;;;;1999.90;999.90;;;;;;;20.16;48.32;100555.03;10327132;28;20050;-65
2023/10/18 10:46:35;;;;;;;1999.90;999.90;;;;;;;21.71;45.76;100551.22;10327824;28;20125;-65
2023/10/18 10:51:49;;;;;;;1999.90;999.90;;;;;;;21.97;45.85;100527.06;10327346;28;20414;-65
2023/10/18 10:56:53;;;;;;;1999.90;999.90;;;;;;;21.00;45.56;100529.50;10328477;28;20054;-65
2023/10/18 11:07:45;;;;;;;1999.90;999.90;;;;;;;21.55;44.14;100505.94;10328242;28;20054;-65
2023/10/18 11:12:24;;;;;;;1999.90;999.90;;;;;;;21.08;45.21;100484.25;10324250;28;20088;-65
2023/10/18 11:17:29;;;;;;;1999.90;999.90;;;;;;;20.82;44.51;100471.06;10327325;28;20058;-65
2023/10/18 11:22:31;;;;;;;1999.90;999.90;;;;;;;22.58;42.36;100451.88;10327727;28;20055;-65
2023/10/18 11:27:34;;;;;;;1999.90;999.90;;;;;;;22.42;42.83;100439.44;10327645;28;20050;-65
2023/10/18 11:32:37;;;;;;;1999.90;999.90;;;;;;;21.53;44.74;100436.84;10329439;28;20100;-65
2023/10/18 11:37:44;;;;;;;1999.90;999.90;;;;;;;22.08;43.39;100428.06;10334542;28;20064;-65
2023/10/18 11:43:05;;;;;;;1999.90;999.90;;;;;;;21.98;44.47;100408.78;10334365;28;20058;-65
2023/10/18 11:48:14;;;;;;;1999.90;999.90;;;;;;;22.50;43.83;100394.06;10333621;28;20050;-65
2023/10/18 11:53:22;;;;;;;1999.90;999.90;;;;;;;21.91;44.08;100388.34;10334089;28;20072;-65
2023/10/18 11:58:27;;;;;;;1999.90;999.90;;;;;;;21.08;45.81;100379.59;10333372;28;20105;-65
2023/10/18 12:03:33;;;;;;;1999.90;999.90;;;;;;;21.37;46.24;100375.59;10333064;28;20104;-65
2023/10/18 12:09:25;;;;;;;1999.90;999.90;;;;;;;22.63;43.92;100366.81;10332497;28;20054;-65
2023/10/18 12:14:11;;;;;;;1999.90;999.90;;;;;;;21.92;44.51;100347.34;10332751;28;20050;-65
2023/10/18 12:19:14;;;;;;;1999.90;999.90;;;;;;;21.30;45.40;100339.00;10331491;28;20483;-65
2023/10/18 12:24:16;;;;;;;1999.90;999.90;;;;;;;21.70;44.28;100328.44;10332720;28;20552;-65
2023/10/18 12:29:19;;;;;;;1999.90;999.90;;;;;;;22.55;44.04;100303.66;10332929;28;20046;-65
2023/10/18 12:34:28;;;;;;;1999.90;999.90;;;;;;;21.69;44.57;100298.31;10332787;28;20081;-65
2023/10/18 12:39:35;;;;;;;1999.90;999.90;;;;;;;21.73;45.15;100305.97;10332054;28;20536;-65
2023/10/18 12:44:39;;;;;;;1999.90;999.90;;;;;;;21.09;46.60;100298.78;10332163;28;20389;-65
2023/10/18 12:49:44;;;;;;;1999.90;999.90;;;;;;;21.00;45.24;100281.16;10331666;28;20517;-65
2023/10/18 12:54:51;;;;;;;1999.90;999.90;;;;;;;20.67;47.22;100255.41;10332054;28;20468;-65
2023/10/18 13:05:01;;;;;;;1999.90;999.90;;;;;;;20.36;47.34;100239.28;10331295;28;20514;-65
2023/10/18 13:10:11;;;;;;;1999.90;999.90;;;;;;;20.16;46.84;100212.19;10331161;28;20566;-65
2023/10/18 13:15:14;;;;;;;1999.90;999.90;;;;;;;20.37;46.84;100207.19;10331616;28;20056;-65
2023/10/18 13:20:34;;;;;;;1999.90;999.90;;;;;;;20.66;47.27;100181.97;10330693;28;20074;-65
2023/10/18 13:25:37;;;;;;;1999.90;999.90;;;;;;;21.36;46.82;100167.09;10329824;28;20478;-65
2023/10/18 13:30:43;;;;;;;1999.90;999.90;;;;;;;20.02;47.30;100165.81;10331055;28;20061;-65
2023/10/18 13:35:49;;;;;;;1999.90;999.90;;;;;;;20.81;46.87;100146.66;10330912;28;20046;-65
2023/10/18 13:40:51;;;;;;;1999.90;999.90;;;;;;;20.69;46.65;100124.91;10330669;28;20051;-65
2023/10/18 13:45:58;;;;;;;1999.90;999.90;;;;;;;21.35;46.87;100109.53;10330585;28;20050;-65
2023/10/18 13:51:02;;;;;;;1999.90;999.90;;;;;;;21.02;47.66;100106.19;10329798;28;20084;-65
2023/10/18 13:56:04;;;;;;;1999.90;999.90;;;;;;;20.07;48.42;100093.59;10328321;28;20410;-65
2023/10/18 14:01:16;;;;;;;1999.90;999.90;;;;;;;19.47;48.17;100079.59;10329994;28;20053;-64
2023/10/18 14:06:22;;;;;;;1999.90;999.90;;;;;;;19.72;48.01;100063.66;10328866;28;20054;-65
2023/10/18 14:11:40;;;;;;;1999.90;999.90;;;;;;;20.42;47.21;100065.78;10328816;28;20143;-65
2023/10/18 14:16:43;;;;;;;1999.90;999.90;;;;;;;19.63;46.87;100053.03;10328453;28;20056;-65
2023/10/18 14:21:48;;;;;;;1999.90;999.90;;;;;;;20.03;47.82;100045.28;10328821;28;20137;-65
2023/10/18 14:26:51;;;;;;;1999.90;999.90;;;;;;;19.21;49.28;100055.81;10329238;28;20050;-65
2023/10/18 14:31:53;;;;;;;1999.90;999.90;;;;;;;19.60;47.96;100034.81;10328538;28;20399;-65
2023/10/18 14:36:56;;;;;;;1999.90;999.90;;;;;;;20.33;48.04;100037.59;10329003;28;20060;-65
2023/10/18 14:41:58;;;;;;;1999.90;999.90;;;;;;;18.83;50.68;100039.44;10329295;28;20042;-65
2023/10/18 14:47:02;;;;;;;1999.90;999.90;;;;;;;19.67;49.15;100025.16;10328735;28;20058;-65
2023/10/18 14:52:10;;;;;;;1999.90;999.90;;;;;;;19.55;50.29;100013.22;10326836;28;20449;-65
2023/10/18 14:57:19;;;;;;;1999.90;999.90;;;;;;;19.06;51.35;100003.38;10327916;28;20495;-65
2023/10/18 15:02:22;;;;;;;1999.90;999.90;;;;;;;18.31;52.82;100016.50;10326584;28;20550;-65
2023/10/18 15:07:24;;;;;;;1999.90;999.90;;;;;;;19.33;51.17;99990.81;10332029;28;20560;-65
2023/10/18 15:12:27;;;;;;;1999.90;999.90;;;;;;;19.15;51.07;99988.31;10334851;28;20086;-65
2023/10/18 15:17:29;;;;;;;1999.90;999.90;;;;;;;18.47;51.79;99989.22;10335027;28;20510;-65
2023/10/18 15:22:34;;;;;;;1999.90;999.90;;;;;;;18.40;51.85;99970.47;10333353;28;20054;-65
2023/10/18 15:27:37;;;;;;;1999.90;999.90;;;;;;;18.67;51.72;99945.56;10333855;28;20050;-65
2023/10/18 15:32:39;;;;;;;1999.90;999.90;;;;;;;18.48;51.64;99935.25;10334126;28;20498;-65
2023/10/18 15:37:45;;;;;;;1999.90;999.90;;;;;;;19.18;51.67;99923.47;10334594;28;20058;-65
2023/10/18 15:42:47;;;;;;;1999.90;999.90;;;;;;;17.74;52.45;99925.06;10334383;28;20053;-65
2023/10/18 15:47:52;;;;;;;1999.90;999.90;;;;;;;17.93;52.55;99921.41;10333704;28;20505;-65
2023/10/18 15:52:54;;;;;;;1999.90;999.90;;;;;;;18.46;52.29;99916.00;10332381;28;20046;-64
2023/10/18 15:57:57;;;;;;;1999.90;999.90;;;;;;;18.25;52.55;99908.47;10333342;28;20508;-64
2023/10/18 16:02:59;;;;;;;1999.90;999.90;;;;;;;17.88;52.66;99906.97;10333702;28;20046;-64
2023/10/18 16:08:04;;;;;;;1999.90;999.90;;;;;;;17.92;52.96;99887.13;10333011;28;20054;-65
2023/10/18 16:13:09;;;;;;;1999.90;999.90;;;;;;;18.37;51.46;99884.19;10332862;28;20078;-64
2023/10/18 16:18:11;;;;;;;1999.90;999.90;;;;;;;18.14;51.81;99880.44;10332721;28;20057;-65
2023/10/18 16:23:14;;;;;;;1999.90;999.90;;;;;;;18.18;52.18;99866.72;10331308;28;20073;-65
2023/10/18 16:28:18;;;;;;;1999.90;999.90;;;;;;;17.20;53.04;99866.16;10332317;28;20556;-64
2023/10/18 16:33:21;;;;;;;1999.90;999.90;;;;;;;17.80;51.98;99870.66;10332211;28;20076;-65
2023/10/18 16:38:23;;;;;;;1999.90;999.90;;;;;;;17.36;52.34;99874.19;10331049;28;20452;-65
2023/10/18 16:43:26;;;;;;;1999.90;999.90;;;;;;;18.03;51.99;99872.81;10331789;28;20406;-64
2023/10/18 16:48:29;;;;;;;1999.90;999.90;;;;;;;17.85;51.53;99857.78;10331747;28;20050;-65
2023/10/18 16:53:37;;;;;;;1999.90;999.90;;;;;;;18.23;51.39;99849.53;10332085;28;20119;-64
2023/10/18 16:58:39;;;;;;;1999.90;999.90;;;;;;;17.57;53.05;99839.44;10330932;28;20058;-65
2023/10/18 17:03:42;;;;;;;1999.90;999.90;;;;;;;18.57;51.45;99825.59;10330059;28;20054;-65
2023/10/18 17:08:45;;;;;;;1999.90;999.90;;;;;;;16.86;54.06;99835.97;10331085;28;20506;-64
2023/10/18 17:13:50;;;;;;;1999.90;999.90;;;;;;;18.03;52.21;99820.66;10330443;28;20042;-65
2023/10/18 17:18:54;;;;;;;1999.90;999.90;;;;;;;17.23;53.13;99802.34;10329662;28;20596;-65
2023/10/18 17:23:57;;;;;;;1999.90;999.90;;;;;;;17.89;52.54;99792.97;10331001;28;20046;-65
2023/10/18 17:28:59;;;;;;;1999.90;999.90;;;;;;;18.23;51.86;99786.78;10328227;28;20054;-65
2023/10/18 17:34:03;;;;;;;1999.90;999.90;;;;;;;17.80;52.68;99788.59;10330974;28;20054;-65
2023/10/18 17:39:06;;;;;;;1999.90;999.90;;;;;;;18.14;52.24;99780.63;10330841;28;20047;-65
2023/10/18 17:44:09;;;;;;;1999.90;999.90;;;;;;;18.03;52.71;99786.22;10329496;28;20144;-65
2023/10/18 17:49:11;;;;;;;1999.90;999.90;;;;;;;17.86;53.46;99776.53;10329354;28;20050;-65
2023/10/18 17:54:18;;;;;;;1999.90;999.90;;;;;;;17.60;53.76;99772.97;10329695;28;20050;-64
2023/10/18 17:59:24;;;;;;;1999.90;999.90;;;;;;;17.61;52.83;99765.84;10329214;28;20051;-65
2023/10/18 18:04:27;;;;;;;1999.90;999.90;;;;;;;17.95;52.73;99755.22;10328772;28;20057;-64
2023/10/18 18:09:30;;;;;;;1999.90;999.90;;;;;;;18.10;53.44;99746.69;10329908;28;20058;-65
2023/10/18 18:14:35;;;;;;;1999.90;999.90;;;;;;;17.75;52.65;99730.84;10329054;28;20062;-65
2023/10/18 18:19:38;;;;;;;1999.90;999.90;;;;;;;17.46;54.20;99725.91;10329266;28;20054;-65
2023/10/18 18:24:40;;;;;;;1999.90;999.90;;;;;;;17.82;54.19;99707.22;10329080;28;20172;-65
2023/10/18 18:29:43;;;;;;;1999.90;999.90;;;;;;;17.63;54.42;99703.00;10328697;28;20411;-65
2023/10/18 18:34:46;;;;;;;1999.90;999.90;;;;;;;17.88;53.92;99690.69;10356888;23;20051;-63
2023/10/18 18:39:48;;;;;;;1999.90;999.90;;;;;;;17.45;55.22;99685.41;10540466;28;20054;-63
2023/10/18 18:44:50;;;;;;;1999.90;999.90;;;;;;;17.51;55.27;99670.69;10539776;28;20476;-63
2023/10/18 18:49:53;;;;;;;1999.90;999.90;;;;;;;17.54;54.73;99672.22;10522669;28;20077;-63
2023/10/18 18:54:55;;;;;;;1999.90;999.90;;;;;;;17.42;55.48;99664.56;10522344;28;20127;-63
2023/10/18 18:59:58;;;;;;;1999.90;999.90;;;;;;;17.61;54.90;99658.16;10522349;28;20047;-63
2023/10/18 19:05:00;;;;;;;1999.90;999.90;;;;;;;16.96;55.99;99658.72;10505567;28;20054;-62
2023/10/18 19:10:02;;;;;;;1999.90;999.90;;;;;;;18.17;54.63;99649.66;10539949;28;20054;-63
2023/10/18 19:15:10;;;;;;;1999.90;999.90;;;;;;;17.75;55.41;99629.41;10539811;28;20040;-63
2023/10/18 19:20:15;;;;;;;1999.90;999.90;;;;;;;17.48;56.86;99619.94;10521496;28;20051;-63
2023/10/18 19:25:18;;;;;;;1999.90;999.90;;;;;;;17.66;57.76;99614.53;10521376;28;20044;-63
2023/10/18 19:30:21;;;;;;;1999.90;999.90;;;;;;;17.33;57.12;99602.03;10539524;28;20048;-63
2023/10/18 19:35:23;;;;;;;1999.90;999.90;;;;;;;18.08;55.19;99595.06;10521276;28;20052;-63
2023/10/18 19:40:26;;;;;;;1999.90;999.90;;;;;;;17.24;57.75;99595.06;10538865;28;20047;-63
2023/10/18 19:45:28;;;;;;;1999.90;999.90;;;;;;;16.88;58.45;99588.16;10538523;28;20400;-63
2023/10/18 19:50:30;;;;;;;1999.90;999.90;;;;;;;17.73;57.37;99581.91;10539153;28;20048;-63
2023/10/18 19:55:33;;;;;;;1999.90;999.90;;;;;;;16.97;59.25;99577.63;10527711;28;20093;-63
2023/10/18 20:00:38;;;;;;;1999.90;999.90;;;;;;;17.45;59.59;99570.81;10546788;28;20052;-63
2023/10/18 20:05:41;;;;;;;1999.90;999.90;;;;;;;17.73;58.92;99559.94;10546510;28;20480;-63
2023/10/18 20:10:44;;;;;;;1999.90;999.90;;;;;;;17.64;60.13;99559.91;10546242;28;20177;-64
2023/10/18 20:15:46;;;;;;;1999.90;999.90;;;;;;;17.11;62.11;99552.38;10546239;28;20128;-63
2023/10/18 20:20:57;;;;;;;1999.90;999.90;;;;;;;17.18;63.02;99550.72;10528145;28;20079;-63
2023/10/18 20:26:05;;;;;;;1999.90;999.90;;;;;;;16.73;65.01;99550.06;10527327;28;20063;-63
2023/10/18 20:31:07;;;;;;;1999.90;999.90;;;;;;;17.02;64.36;99554.97;10527872;28;20048;-62
2023/10/18 20:36:10;;;;;;;1999.90;999.90;;;;;;;16.80;65.10;99532.56;10545098;28;20078;-63
2023/10/18 20:41:12;;;;;;;1999.90;999.90;;;;;;;16.11;67.88;99529.88;10544594;28;20070;-62
2023/10/18 20:46:17;;;;;;;1999.90;999.90;;;;;;;15.97;68.31;99528.66;10527030;28;20048;-62
2023/10/18 20:51:20;;;;;;;1999.90;999.90;;;;;;;16.05;68.09;99511.19;10526850;28;20420;-63
2023/10/18 20:56:22;;;;;;;1999.90;999.90;;;;;;;16.28;67.84;99496.50;10526698;28;20123;-62
2023/10/18 21:01:34;;;;;;;1999.90;999.90;;;;;;;16.47;67.18;99492.78;10544903;28;20079;-62
2023/10/18 21:06:42;;;;;;;1999.90;999.90;;;;;;;17.18;66.33;99469.59;10544024;28;20046;-62
2023/10/18 21:11:45;;;;;;;1999.90;999.90;;;;;;;15.59;69.35;99474.38;10543977;28;20059;-62
2023/10/18 21:16:48;;;;;;;1999.90;999.90;;;;;;;15.95;71.80;99456.72;10525199;28;20052;-62
2023/10/18 21:21:50;;;;;;;1999.90;999.90;;;;;;;15.77;72.84;99454.09;10543513;28;20054;-63
2023/10/18 21:26:53;;;;;;;1999.90;999.90;;;;;;;15.92;73.26;99438.53;10525524;28;20048;-62
2023/10/18 21:31:56;;;;;;;1999.90;999.90;;;;;;;15.49;74.05;99434.91;10543171;28;20051;-63
2023/10/18 21:37:01;;;;;;;1999.90;999.90;;;;;;;16.12;73.44;99419.81;10542402;28;20062;-62
2023/10/18 21:42:07;;;;;;;1999.90;999.90;;;;;;;15.30;76.49;99406.06;10542663;28;20052;-63
2023/10/18 21:47:09;;;;;;;1999.90;999.90;;;;;;;15.67;76.42;99408.50;10542540;28;20061;-62
2023/10/18 21:52:12;;;;;;;1999.90;999.90;;;;;;;15.96;77.19;99399.47;10524929;28;20048;-62
2023/10/18 21:57:14;;;;;;;1999.90;999.90;;;;;;;15.58;78.32;99388.31;10542128;28;20087;-63
2023/10/18 22:02:19;;;;;;;1999.90;999.90;;;;;;;15.60;77.74;99371.34;10541907;28;20051;-63
2023/10/18 22:07:25;;;;;;;1999.90;999.90;;;;;;;15.64;78.32;99371.88;10524475;28;20055;-63
2023/10/18 22:12:31;;;;;;;1999.90;999.90;;;;;;;15.52;80.93;99375.75;10541823;28;20055;-63
2023/10/18 22:17:36;;;;;;;1999.90;999.90;;;;;;;15.20;82.06;99364.81;10540944;28;20055;-64
2023/10/18 22:22:43;;;;;;;1999.90;999.90;;;;;;;15.41;81.21;99355.72;10541084;28;20488;-63
2023/10/18 22:27:45;;;;;;;1999.90;999.90;;;;;;;15.33;80.73;99342.47;10540519;28;20605;-64
2023/10/18 22:32:48;;;;;;;1999.90;999.90;;;;;;;15.50;82.33;99343.41;10540950;28;20040;-63
2023/10/18 22:37:52;;;;;;;1999.90;999.90;;;;;;;15.91;80.36;99328.66;10539910;28;20494;-63
2023/10/18 22:42:54;;;;;;;1999.90;999.90;;;;;;;15.18;86.27;99340.41;10539912;28;20496;-63